Airfield :
LOGIN :

Register | Disclaimer

   EN    FR    IT 

 










Legend :    VFR   Marginal VFR   IFR   Intensive IFR   Very Intensive IFR
Visi :
Ceiling :
>= 8 km
>= 3000ft
5 to 8 km
1000 to 3000 ft
1500m to 5 km
500 to 1000 ft
800 to 1500m
200 to 500 ft
< 800m
< 200 ft
Symbols :   Thunderstorms  Fog  Heavy snow  Heavy precipitations  Wind > 20 kt
SIGMETs :     Misc.  Thunderstorms  Icing  Turbulence  Mountain Waves  Volcanic Ashes







- Airport Elevation : 915 ft
- IATA code : LUG


LSZA - Lugano

CURRENT METAR :
  • 212020Z VRB01KT 9999 -RA FEW032 SCT042 BKN050 06/06 Q1017 NOSIG

EXPIRED METARs :
  • 211950Z 00000KT 9999 -RA FEW032 SCT042 BKN050 06/06 Q1016 NOSIG
  • 211920Z VRB01KT 9999 -RA FEW042 BKN052 06/06 Q1016 NOSIG
  • 211850Z VRB01KT 9999 -RA FEW040 BKN050 06/06 Q1016 NOSIG
  • 211820Z VRB01KT 9999 -RA FEW040 BKN050 07/06 Q1016 NOSIG
  • 211750Z 01003KT 9999 -RA FEW030 BKN055 BKN075 06/05 Q1015 NOSIG

TAF TAF LSZA
Valid from the 21 at 15:00 until the 22 at 00:00 UTC


211425Z 2115/2124 VRB03KT 9999 FEW080 BKN100
PROB40
TEMPO 2118/2122 4000 RA
ATIS : +41 22 417 40 88
No reported NOTAMs for that airfield.



MET'MAP, your aeronautical weather chart ! - Copyright ORBIFLY December 2007 - Disclaimer

ORBIFLY MET'MAP TEAM :

Programming & Development : Alexandra Zaïnal
Concept & Development : Baudouin d'Aumeries
Co-Development & Prog : Marc-Olivier Méhu
Technical & hardware support : Manuel Goepfert

Contact : metmap@orbifly.com




SOURCES & CREDITS :

   NOAA